createdAt,value
2023-02-05T04:01:29.437Z,19.13
2023-02-05T04:03:56.702Z,22.53
2023-02-05T04:06:23.867Z,24.80
2023-02-05T04:08:51.044Z,21.40
2023-02-05T04:11:18.255Z,35.83
2023-02-05T04:13:45.443Z,113.77
2023-02-05T04:16:12.697Z,22.87
2023-02-05T04:18:39.857Z,28.30
2023-02-05T04:21:07.023Z,27.17
2023-02-05T04:23:34.258Z,28.63
2023-02-05T04:26:01.512Z,18.07
2023-02-05T04:28:28.671Z,23.90
2023-02-05T04:30:55.887Z,37.53
2023-02-05T04:33:23.155Z,19.20
2023-02-05T04:35:50.359Z,22.97
2023-02-05T04:38:17.535Z,19.90
2023-02-05T04:40:45.631Z,23.10
2023-02-05T04:43:12.838Z,24.83
2023-02-05T04:45:40.088Z,12.30
2023-02-05T04:48:07.389Z,23.17
2023-02-05T04:50:34.847Z,25.20
2023-02-05T04:53:02.504Z,19.27
2023-02-05T04:55:30.358Z,21.00
2023-02-05T04:57:57.972Z,23.77
2023-02-05T05:00:25.662Z,22.37
2023-02-05T05:02:52.960Z,25.93
2023-02-05T05:05:20.227Z,22.77
2023-02-05T05:07:47.420Z,22.20
2023-02-05T05:10:14.733Z,24.10
2023-02-05T05:12:41.990Z,33.07
2023-02-05T05:15:09.613Z,29.20
2023-02-05T05:17:36.789Z,24.37
2023-02-05T05:20:04.504Z,38.93
2023-02-05T05:22:31.732Z,30.27
2023-02-05T05:24:58.948Z,26.87
2023-02-05T05:27:26.265Z,20.83
2023-02-05T05:29:53.857Z,27.70
2023-02-05T05:32:21.016Z,26.47
2023-02-05T05:34:48.179Z,22.97
2023-02-05T05:37:15.435Z,30.67
2023-02-05T05:40:01.326Z,28.67
2023-02-05T05:42:47.083Z,21.70
2023-02-05T05:45:14.276Z,37.23
2023-02-05T05:47:41.447Z,21.30
2023-02-05T05:50:09.056Z,17.87
2023-02-05T05:52:36.211Z,18.03
2023-02-05T05:55:03.449Z,17.73
2023-02-05T05:57:30.641Z,21.33
2023-02-05T05:59:57.940Z,17.37
2023-02-05T06:02:25.211Z,19.07
2023-02-05T06:04:52.532Z,12.10
2023-02-05T06:07:19.701Z,19.37
2023-02-05T06:09:47.149Z,22.03
2023-02-05T06:12:14.334Z,16.37
2023-02-05T06:14:41.485Z,21.57
2023-02-05T06:17:08.769Z,14.43
2023-02-05T06:19:35.891Z,19.47
2023-02-05T06:22:03.641Z,17.17
2023-02-05T06:24:31.107Z,13.10
2023-02-05T06:26:58.298Z,16.87
2023-02-05T06:29:25.573Z,32.43
2023-02-05T06:31:52.892Z,15.77
2023-02-05T06:34:20.202Z,17.03
2023-02-05T06:36:47.378Z,18.93
2023-02-05T06:39:14.575Z,21.97
2023-02-05T06:41:41.719Z,16.13
2023-02-05T06:44:08.906Z,18.03
2023-02-05T06:46:36.132Z,18.50
2023-02-05T06:49:03.346Z,16.53
2023-02-05T06:51:30.693Z,19.70
2023-02-05T06:53:59.479Z,15.80
2023-02-05T06:56:26.690Z,17.40
2023-02-05T06:58:53.888Z,11.90
2023-02-05T07:01:21.407Z,20.60
2023-02-05T07:03:49.421Z,18.83
2023-02-05T07:06:17.088Z,20.97
2023-02-05T07:08:44.392Z,21.13
2023-02-05T07:11:11.536Z,22.33
2023-02-05T07:13:38.733Z,22.73
2023-02-05T07:16:06.425Z,21.53
2023-02-05T07:18:34.426Z,22.10
2023-02-05T07:21:06.758Z,22.30
2023-02-05T07:23:34.391Z,26.87
2023-02-05T07:26:16.315Z,22.93
2023-02-05T07:28:44.905Z,23.07
2023-02-05T07:31:15.506Z,25.93
2023-02-05T07:33:46.949Z,28.57
2023-02-05T07:36:17.601Z,23.63
2023-02-05T07:38:46.197Z,23.63
2023-02-05T07:41:15.909Z,23.87
2023-02-05T07:43:43.147Z,22.23
2023-02-05T07:46:15.102Z,20.63
2023-02-05T07:48:42.338Z,15.63
2023-02-05T07:51:23.853Z,26.00
2023-02-05T07:53:51.401Z,29.03
2023-02-05T07:56:21.716Z,25.30
2023-02-05T07:58:48.939Z,32.07
2023-02-05T08:01:16.239Z,31.23
2023-02-05T08:03:43.940Z,41.93
2023-02-05T08:06:15.179Z,39.87
2023-02-05T08:08:42.763Z,41.40
2023-02-05T08:11:16.005Z,29.27
2023-02-05T08:13:44.117Z,45.27
2023-02-05T08:16:12.517Z,25.83
2023-02-05T08:18:39.743Z,31.43
2023-02-05T08:21:07.324Z,25.93
2023-02-05T08:23:34.539Z,29.80
2023-02-05T08:26:01.701Z,26.00
2023-02-05T08:28:29.288Z,26.30
2023-02-05T08:30:56.826Z,24.90
2023-02-05T08:33:24.343Z,25.97
2023-02-05T08:35:51.713Z,25.60
2023-02-05T08:38:18.884Z,22.43
2023-02-05T08:40:46.054Z,28.10
2023-02-05T08:43:13.296Z,24.60
2023-02-05T08:45:40.583Z,26.03
2023-02-05T08:48:07.828Z,29.70
2023-02-05T08:50:35.043Z,39.00
2023-02-05T08:53:02.263Z,27.33
2023-02-05T08:55:29.499Z,31.80
2023-02-05T08:57:57.074Z,33.57
2023-02-05T09:00:24.450Z,35.87
2023-02-05T09:02:51.589Z,31.13
2023-02-05T09:05:18.845Z,30.13
2023-02-05T09:07:46.042Z,31.40
2023-02-05T09:10:13.636Z,29.17
2023-02-05T09:12:40.814Z,31.80
2023-02-05T09:15:08.782Z,22.80
2023-02-05T09:17:36.145Z,19.73
2023-02-05T09:20:04.070Z,27.43
2023-02-05T09:22:31.384Z,22.13
2023-02-05T09:24:58.536Z,23.53
2023-02-05T09:27:25.747Z,20.73
2023-02-05T09:29:52.887Z,24.00
2023-02-05T09:32:20.119Z,19.00
2023-02-05T09:34:49.166Z,24.60
2023-02-05T09:37:17.474Z,28.13
2023-02-05T09:40:19.066Z,27.43
2023-02-05T09:43:04.871Z,17.90
2023-02-05T09:45:55.722Z,28.53
2023-02-05T09:48:49.469Z,20.97
2023-02-05T09:51:20.742Z,29.07
2023-02-05T09:54:02.501Z,22.30
2023-02-05T09:56:30.316Z,17.00
2023-02-05T09:58:58.862Z,22.70
2023-02-05T10:01:37.985Z,20.43
2023-02-05T10:04:06.268Z,15.73
2023-02-05T10:06:39.135Z,16.90
2023-02-05T10:09:25.996Z,20.43
2023-02-05T10:12:05.297Z,16.53
2023-02-05T10:14:32.475Z,23.00
2023-02-05T10:17:19.362Z,11.80
2023-02-05T10:19:46.502Z,17.73
2023-02-05T10:22:26.700Z,17.73
2023-02-05T10:25:04.491Z,7.93
2023-02-05T10:27:46.453Z,14.83
2023-02-05T10:30:18.219Z,17.03
2023-02-05T10:32:56.722Z,17.50
2023-02-05T10:35:34.795Z,14.77
2023-02-05T10:38:04.698Z,15.93
2023-02-05T10:40:40.179Z,16.53
2023-02-05T10:43:30.206Z,10.97
2023-02-05T10:45:58.849Z,19.53
2023-02-05T10:48:50.623Z,12.80
2023-02-05T10:51:28.948Z,16.97
2023-02-05T10:53:57.912Z,14.67
2023-02-05T10:56:25.172Z,15.20
2023-02-05T10:58:52.306Z,21.07
2023-02-05T11:01:41.543Z,23.77
2023-02-05T11:04:13.558Z,18.97
2023-02-05T11:06:47.379Z,18.13
2023-02-05T11:09:26.463Z,22.80
2023-02-05T11:11:56.346Z,18.60
2023-02-05T11:14:45.712Z,15.47
2023-02-05T11:17:32.053Z,14.57
2023-02-05T11:20:01.460Z,18.70
2023-02-05T11:22:35.310Z,17.80
2023-02-05T11:25:27.133Z,18.23
2023-02-05T11:27:58.917Z,15.17
2023-02-05T11:30:51.111Z,20.37
2023-02-05T11:33:27.418Z,9.93
2023-02-05T11:35:55.752Z,18.33
2023-02-05T11:38:23.848Z,12.57
2023-02-05T11:40:53.002Z,13.67
2023-02-05T11:43:40.197Z,12.20
2023-02-05T11:46:14.276Z,17.60
2023-02-05T11:48:59.627Z,18.13
2023-02-05T11:51:45.800Z,15.63
2023-02-05T11:54:23.151Z,22.07
2023-02-05T11:57:23.266Z,11.60
2023-02-05T11:59:58.349Z,18.00
2023-02-05T12:02:28.642Z,18.73
2023-02-05T12:05:17.390Z,20.33
2023-02-05T12:07:54.006Z,10.13
2023-02-05T12:10:52.660Z,18.33
2023-02-05T12:14:00.047Z,19.30
2023-02-05T12:16:53.339Z,15.80
2023-02-05T12:19:24.240Z,14.40
2023-02-05T12:22:36.730Z,15.27
2023-02-05T12:25:14.681Z,20.73
2023-02-05T12:28:09.768Z,15.77
2023-02-05T12:30:43.509Z,14.43
2023-02-05T12:33:31.993Z,14.07
2023-02-05T12:36:25.383Z,22.57
2023-02-05T12:39:29.808Z,14.70
2023-02-05T12:42:02.026Z,17.33
2023-02-05T12:44:50.566Z,14.63
2023-02-05T12:47:36.031Z,14.97
2023-02-05T12:50:27.205Z,17.80
2023-02-05T12:53:20.607Z,16.57
2023-02-05T12:55:50.807Z,16.57
2023-02-05T12:58:19.534Z,33.07
2023-02-05T13:00:59.994Z,31.20
2023-02-05T13:03:29.891Z,18.53
2023-02-05T13:06:03.824Z,22.40
2023-02-05T13:08:47.992Z,27.20
2023-02-05T13:11:20.806Z,19.33
2023-02-05T13:14:00.199Z,23.27
2023-02-05T13:16:44.183Z,8.90
2023-02-05T13:19:23.636Z,13.63
2023-02-05T13:22:13.607Z,7.30
2023-02-05T13:25:27.355Z,12.53
2023-02-05T13:28:40.166Z,12.20
2023-02-05T13:31:23.949Z,10.67
2023-02-05T13:33:53.109Z,9.20
2023-02-05T13:36:29.530Z,13.40
2023-02-05T13:39:36.684Z,13.53
2023-02-05T13:42:25.456Z,10.83
2023-02-05T13:45:20.820Z,32.37
2023-02-05T13:47:57.023Z,24.63
2023-02-05T13:50:51.758Z,14.17
2023-02-05T13:53:23.060Z,9.87
2023-02-05T13:56:17.809Z,14.30
2023-02-05T13:59:02.517Z,10.33
2023-02-05T14:01:34.833Z,12.23
2023-02-05T14:04:16.321Z,11.33
2023-02-05T14:06:46.890Z,11.77
2023-02-05T14:09:27.662Z,12.73
2023-02-05T14:12:00.334Z,10.97
2023-02-05T14:14:36.054Z,12.83
2023-02-05T14:17:28.780Z,9.20
2023-02-05T14:19:58.936Z,13.23
2023-02-05T14:22:44.991Z,18.13
2023-02-05T14:25:39.638Z,11.90
2023-02-05T14:28:15.902Z,12.13
2023-02-05T14:30:57.308Z,11.00
2023-02-05T14:33:30.230Z,11.87
2023-02-05T14:36:21.157Z,11.53
2023-02-05T14:38:55.239Z,10.67
2023-02-05T14:41:33.680Z,14.23
2023-02-05T14:44:02.607Z,13.07
2023-02-05T14:46:57.412Z,13.50
2023-02-05T14:49:39.001Z,12.90
2023-02-05T14:52:24.905Z,13.20
2023-02-05T14:55:00.979Z,11.20
2023-02-05T14:57:42.092Z,14.43
2023-02-05T15:00:39.367Z,15.77
2023-02-05T15:03:12.742Z,13.53
2023-02-05T15:05:49.090Z,15.20
2023-02-05T15:08:16.341Z,17.10
2023-02-05T15:11:04.129Z,18.20
2023-02-05T15:13:32.179Z,14.80
2023-02-05T15:16:11.515Z,17.23
2023-02-05T15:18:50.758Z,17.17
2023-02-05T15:21:23.550Z,13.53
2023-02-05T15:24:01.394Z,12.40
2023-02-05T15:27:06.828Z,12.70
2023-02-05T15:29:57.237Z,14.70
2023-02-05T15:32:44.937Z,15.20
2023-02-05T15:35:16.634Z,13.33
2023-02-05T15:37:49.675Z,17.00
2023-02-05T15:40:30.631Z,17.33
2023-02-05T15:43:00.192Z,20.10
2023-02-05T15:45:30.628Z,27.57
2023-02-05T15:48:11.095Z,24.67
2023-02-05T15:50:51.842Z,27.73
2023-02-05T15:53:33.957Z,32.07
2023-02-05T15:56:21.208Z,25.77
2023-02-05T15:59:14.137Z,23.63
2023-02-05T16:01:46.884Z,34.07
2023-02-05T16:04:35.558Z,24.53
2023-02-05T16:07:16.079Z,24.00
2023-02-05T16:09:48.633Z,47.17
2023-02-05T16:12:16.121Z,63.17
2023-02-05T16:14:46.741Z,62.93
2023-02-05T16:17:26.469Z,63.87
2023-02-05T16:20:27.255Z,93.70
2023-02-05T16:22:57.460Z,44.30
2023-02-05T16:25:52.344Z,24.77
2023-02-05T16:28:27.988Z,30.80
2023-02-05T16:30:57.080Z,23.13
2023-02-05T16:33:40.939Z,29.10
2023-02-05T16:36:17.690Z,26.83
2023-02-05T16:38:53.679Z,23.10
2023-02-05T16:41:27.273Z,22.93
2023-02-05T16:43:57.735Z,21.40
2023-02-05T16:46:30.525Z,24.57
2023-02-05T16:49:01.848Z,27.57
2023-02-05T16:51:33.281Z,30.37
2023-02-05T16:54:02.578Z,23.50
2023-02-05T16:56:32.835Z,21.03
2023-02-05T16:59:01.653Z,17.27
2023-02-05T17:01:42.855Z,21.80
2023-02-05T17:04:31.403Z,16.60
2023-02-05T17:07:01.223Z,22.10
2023-02-05T17:09:37.017Z,20.90
2023-02-05T17:12:22.234Z,19.63
2023-02-05T17:14:53.642Z,20.63
2023-02-05T17:17:21.369Z,19.77
2023-02-05T17:20:16.261Z,17.43
2023-02-05T17:22:58.681Z,20.27
2023-02-05T17:25:27.668Z,22.83
2023-02-05T17:27:55.748Z,22.53
2023-02-05T17:30:23.093Z,22.10
2023-02-05T17:32:51.160Z,19.50
2023-02-05T17:35:25.721Z,21.70
2023-02-05T17:37:53.622Z,29.07
2023-02-05T17:40:21.094Z,23.30
2023-02-05T17:42:48.664Z,19.83
2023-02-05T17:45:18.466Z,17.83
2023-02-05T17:47:45.814Z,16.80
2023-02-05T17:50:13.523Z,26.40
2023-02-05T17:52:40.705Z,13.97
2023-02-05T17:55:14.236Z,15.57
2023-02-05T17:57:43.008Z,12.70
2023-02-05T18:00:16.000Z,10.87
2023-02-05T18:02:43.128Z,20.30
2023-02-05T18:05:13.292Z,12.73
2023-02-05T18:07:45.332Z,17.03
2023-02-05T18:10:18.115Z,16.57
2023-02-05T18:12:45.302Z,16.60
2023-02-05T18:15:12.927Z,19.57
2023-02-05T18:17:41.220Z,21.37
2023-02-05T18:20:09.381Z,21.03
2023-02-05T18:22:37.195Z,13.43
2023-02-05T18:25:05.971Z,16.20
2023-02-05T18:27:33.902Z,15.23
2023-02-05T18:30:01.129Z,12.90
2023-02-05T18:32:28.375Z,11.27
2023-02-05T18:34:55.551Z,11.53
2023-02-05T18:37:23.600Z,10.73
2023-02-05T18:39:51.937Z,14.70
2023-02-05T18:42:19.125Z,12.23
2023-02-05T18:44:46.280Z,15.33
2023-02-05T18:47:13.985Z,13.83
2023-02-05T18:49:41.333Z,13.30
2023-02-05T18:52:10.192Z,13.77
2023-02-05T18:54:37.375Z,14.00
2023-02-05T18:57:05.029Z,13.67
2023-02-05T18:59:32.350Z,14.10
2023-02-05T19:01:59.598Z,15.43
2023-02-05T19:04:27.901Z,14.47
2023-02-05T19:06:55.564Z,11.63
2023-02-05T19:09:24.810Z,12.73
2023-02-05T19:11:54.110Z,14.37
2023-02-05T19:14:23.237Z,14.80
2023-02-05T19:16:50.823Z,23.00
2023-02-05T19:19:21.147Z,16.60
2023-02-05T19:21:59.993Z,18.27
2023-02-05T19:24:27.567Z,26.53
2023-02-05T19:26:56.532Z,15.97
2023-02-05T19:29:23.755Z,17.60
2023-02-05T19:31:53.298Z,16.53
2023-02-05T19:34:22.087Z,18.23
2023-02-05T19:36:49.247Z,13.80
2023-02-05T19:39:16.592Z,15.27
2023-02-05T19:41:48.353Z,14.17
2023-02-05T19:44:15.620Z,16.50
2023-02-05T19:46:48.696Z,13.77
2023-02-05T19:49:21.486Z,13.13
2023-02-05T19:51:51.227Z,12.73
2023-02-05T19:54:21.397Z,14.43
2023-02-05T19:56:49.454Z,14.03
2023-02-05T19:59:17.323Z,12.50
2023-02-05T20:01:45.645Z,18.17
2023-02-05T20:04:18.745Z,17.47
2023-02-05T20:06:47.312Z,19.50
2023-02-05T20:09:16.089Z,17.73
2023-02-05T20:11:48.628Z,16.07
2023-02-05T20:14:17.063Z,22.50
2023-02-05T20:16:47.002Z,21.50
2023-02-05T20:19:16.785Z,22.27
2023-02-05T20:21:46.032Z,25.73
2023-02-05T20:24:15.607Z,22.07
2023-02-05T20:26:43.201Z,17.97
2023-02-05T20:29:29.535Z,19.10
2023-02-05T20:31:58.313Z,14.97
2023-02-05T20:34:26.775Z,17.50
2023-02-05T20:37:00.789Z,13.50
2023-02-05T20:39:29.330Z,15.97
2023-02-05T20:41:58.453Z,14.13
2023-02-05T20:44:28.346Z,13.83
2023-02-05T20:46:55.820Z,11.90
2023-02-05T20:49:23.451Z,17.03
2023-02-05T20:51:50.862Z,12.73
2023-02-05T20:54:18.018Z,15.83
2023-02-05T20:56:45.220Z,20.20
2023-02-05T20:59:12.635Z,15.10
2023-02-05T21:01:40.421Z,13.57
2023-02-05T21:04:09.352Z,13.80
2023-02-05T21:06:40.204Z,12.90
2023-02-05T21:09:09.462Z,12.10
2023-02-05T21:11:38.003Z,13.33
2023-02-05T21:14:06.238Z,11.77
2023-02-05T21:16:35.166Z,16.60
2023-02-05T21:19:05.027Z,16.17
2023-02-05T21:21:34.287Z,21.87
2023-02-05T21:24:07.111Z,13.03
2023-02-05T21:26:39.682Z,12.80
2023-02-05T21:29:10.653Z,13.83
2023-02-05T21:31:45.012Z,14.13
2023-02-05T21:34:21.790Z,16.33
2023-02-05T21:36:50.054Z,16.60
2023-02-05T21:39:19.934Z,18.63
2023-02-05T21:41:48.525Z,16.73
2023-02-05T21:44:15.878Z,17.57
2023-02-05T21:46:43.035Z,19.27
2023-02-05T21:49:11.407Z,17.70
2023-02-05T21:51:38.678Z,22.93
2023-02-05T21:54:06.596Z,21.00
2023-02-05T21:56:42.266Z,21.03
2023-02-05T21:59:13.030Z,17.10
